createdAt,value
2023-01-11T00:01:20.482Z,98.10
2023-01-11T00:03:47.120Z,98.30
2023-01-11T00:06:13.748Z,98.20
2023-01-11T00:08:40.510Z,97.70
2023-01-11T00:11:07.149Z,97.40
2023-01-11T00:13:33.767Z,98.00
2023-01-11T00:16:00.418Z,98.00
2023-01-11T00:18:27.140Z,97.10
2023-01-11T00:20:53.799Z,96.80
2023-01-11T00:23:20.397Z,97.70
2023-01-11T00:25:47.092Z,96.90
2023-01-11T00:28:13.727Z,96.90
2023-01-11T00:30:40.355Z,97.60
2023-01-11T00:33:07.013Z,97.60
2023-01-11T00:35:33.691Z,97.10
2023-01-11T00:38:00.482Z,97.20
2023-01-11T00:40:27.362Z,96.70
2023-01-11T00:43:12.833Z,98.30
2023-01-11T00:45:58.483Z,96.40
2023-01-11T00:48:25.150Z,97.20
2023-01-11T00:50:51.855Z,97.00
2023-01-11T00:53:19.516Z,96.90
2023-01-11T00:55:46.145Z,97.40
2023-01-11T00:58:12.868Z,97.50
2023-01-11T01:00:39.517Z,97.90
2023-01-11T01:03:06.212Z,97.20
2023-01-11T01:05:33.514Z,97.60
2023-01-11T01:08:00.121Z,97.90
2023-01-11T01:10:26.778Z,97.70
2023-01-11T01:13:12.397Z,97.70
2023-01-11T01:15:39.133Z,97.50
2023-01-11T01:18:05.807Z,97.70
2023-01-11T01:20:32.992Z,97.70
2023-01-11T01:22:59.613Z,97.90
2023-01-11T01:25:26.404Z,97.90
2023-01-11T01:27:53.103Z,98.20
2023-01-11T01:30:19.760Z,98.40
2023-01-11T01:32:46.417Z,98.50
2023-01-11T01:35:13.189Z,97.40
2023-01-11T01:37:39.846Z,97.50
2023-01-11T01:40:06.465Z,97.40
2023-01-11T01:42:33.149Z,97.60
2023-01-11T01:44:59.802Z,98.60
2023-01-11T01:47:26.532Z,97.70
2023-01-11T01:49:53.169Z,97.70
2023-01-11T01:52:19.822Z,98.30
2023-01-11T01:54:46.459Z,98.10
2023-01-11T01:57:13.104Z,98.20
2023-01-11T01:59:39.773Z,98.30
2023-01-11T02:02:06.389Z,98.60
2023-01-11T02:04:33.059Z,98.50
2023-01-11T02:06:59.682Z,98.90
2023-01-11T02:09:27.165Z,98.70
2023-01-11T02:11:53.789Z,98.50
2023-01-11T02:14:20.661Z,98.50
2023-01-11T02:16:47.322Z,99.00
2023-01-11T02:19:14.056Z,98.70
2023-01-11T02:21:40.700Z,98.60
2023-01-11T02:24:07.335Z,98.60
2023-01-11T02:26:33.993Z,98.70
2023-01-11T02:29:00.630Z,98.90
2023-01-11T02:31:27.244Z,98.80
2023-01-11T02:33:53.882Z,98.90
2023-01-11T02:36:20.531Z,99.00
2023-01-11T02:38:47.207Z,99.10
2023-01-11T02:41:13.819Z,99.30
2023-01-11T02:43:59.404Z,99.00
2023-01-11T02:46:26.157Z,99.20
2023-01-11T02:48:52.791Z,99.30
2023-01-11T02:51:19.413Z,98.90
2023-01-11T02:53:47.667Z,99.00
2023-01-11T02:56:14.266Z,98.90
2023-01-11T02:58:40.997Z,99.70
2023-01-11T03:01:07.639Z,98.80
2023-01-11T03:03:34.234Z,99.00
2023-01-11T03:06:00.868Z,99.00
2023-01-11T03:08:27.608Z,99.40
2023-01-11T03:10:54.262Z,98.50
2023-01-11T03:13:20.934Z,98.40
2023-01-11T03:15:47.571Z,98.50
2023-01-11T03:18:14.284Z,98.10
2023-01-11T03:20:40.959Z,98.90
2023-01-11T03:23:07.647Z,98.70
2023-01-11T03:25:34.296Z,98.70
2023-01-11T03:28:00.994Z,98.30
2023-01-11T03:30:27.677Z,98.20
2023-01-11T03:32:54.339Z,98.80
2023-01-11T03:35:21.028Z,98.60
2023-01-11T03:37:47.690Z,99.30
2023-01-11T03:40:14.317Z,98.50
2023-01-11T03:43:00.893Z,99.00
2023-01-11T03:45:27.597Z,99.40
2023-01-11T03:47:54.201Z,99.20
2023-01-11T03:50:20.851Z,99.40
2023-01-11T03:52:47.454Z,99.50
2023-01-11T03:55:14.108Z,99.40
2023-01-11T03:57:40.810Z,99.70
2023-01-11T04:00:07.445Z,99.90
2023-01-11T04:02:34.086Z,99.90
2023-01-11T04:05:00.775Z,99.80
2023-01-11T04:07:27.436Z,99.90
2023-01-11T04:09:54.036Z,99.90
2023-01-11T04:12:20.740Z,99.90
2023-01-11T04:14:47.363Z,99.70
2023-01-11T04:17:14.032Z,99.90
2023-01-11T04:19:40.662Z,99.80
2023-01-11T04:22:07.394Z,99.90
2023-01-11T04:24:34.048Z,99.90
2023-01-11T04:27:00.690Z,99.90
2023-01-11T04:29:27.306Z,99.90
2023-01-11T04:31:54.006Z,99.70
2023-01-11T04:34:20.682Z,99.90
2023-01-11T04:36:47.333Z,99.90
2023-01-11T04:39:13.982Z,99.90
2023-01-11T04:41:59.458Z,99.90
2023-01-11T04:44:26.071Z,99.90
2023-01-11T04:46:52.657Z,99.80
2023-01-11T04:49:19.305Z,99.80
2023-01-11T04:51:45.969Z,99.80
2023-01-11T04:54:12.626Z,99.80
2023-01-11T04:56:39.364Z,99.90
2023-01-11T04:59:06.028Z,99.90
2023-01-11T05:01:32.720Z,99.90
2023-01-11T05:03:59.449Z,99.90
2023-01-11T05:06:26.252Z,99.90
2023-01-11T05:08:52.931Z,99.90
2023-01-11T05:11:19.534Z,99.90
2023-01-11T05:13:46.174Z,99.90
2023-01-11T05:16:12.819Z,99.90
2023-01-11T05:18:39.436Z,99.90
2023-01-11T05:21:06.549Z,99.90
2023-01-11T05:23:33.207Z,99.90
2023-01-11T05:25:59.797Z,99.90
2023-01-11T05:28:26.407Z,99.90
2023-01-11T05:30:56.197Z,99.90
2023-01-11T05:33:22.830Z,99.90
2023-01-11T05:35:49.429Z,99.90
2023-01-11T05:38:16.063Z,99.90
2023-01-11T05:40:42.716Z,99.90
2023-01-11T05:43:09.384Z,99.70
2023-01-11T05:45:36.314Z,99.70
2023-01-11T05:48:03.080Z,99.30
2023-01-11T05:50:29.762Z,99.60
2023-01-11T05:52:56.467Z,99.30
2023-01-11T05:55:23.085Z,99.10
2023-01-11T05:57:51.153Z,99.20
2023-01-11T06:00:17.779Z,99.00
2023-01-11T06:02:44.538Z,99.10
2023-01-11T06:05:11.269Z,99.00
2023-01-11T06:07:37.945Z,98.80
2023-01-11T06:10:04.553Z,99.00
2023-01-11T06:12:31.214Z,99.10
2023-01-11T06:14:57.958Z,99.00
2023-01-11T06:17:24.617Z,99.10
2023-01-11T06:19:51.315Z,99.00
2023-01-11T06:22:18.002Z,99.10
2023-01-11T06:24:44.695Z,98.70
2023-01-11T06:27:11.438Z,98.70
2023-01-11T06:29:38.063Z,98.40
2023-01-11T06:32:05.107Z,98.20
2023-01-11T06:34:31.784Z,98.10
2023-01-11T06:36:58.390Z,98.10
2023-01-11T06:39:25.060Z,97.90
2023-01-11T06:41:51.693Z,97.90
2023-01-11T06:44:18.298Z,97.60
2023-01-11T06:46:44.947Z,97.20
2023-01-11T06:49:11.665Z,97.70
2023-01-11T06:51:38.282Z,97.80
2023-01-11T06:54:04.928Z,97.30
2023-01-11T06:56:31.546Z,97.50
2023-01-11T06:58:58.323Z,97.70
2023-01-11T07:01:26.191Z,98.00
2023-01-11T07:03:53.265Z,97.80
2023-01-11T07:06:19.891Z,97.40
2023-01-11T07:08:46.561Z,97.80
2023-01-11T07:11:13.209Z,98.20
2023-01-11T07:13:39.905Z,97.70
2023-01-11T07:16:06.789Z,97.70
2023-01-11T07:18:33.686Z,97.60
2023-01-11T07:21:00.410Z,98.10
2023-01-11T07:23:27.218Z,98.50
2023-01-11T07:25:53.908Z,98.20
2023-01-11T07:28:20.753Z,98.60
2023-01-11T07:30:58.856Z,98.40
2023-01-11T07:33:26.228Z,98.40
2023-01-11T07:35:53.308Z,98.40
2023-01-11T07:38:20.012Z,98.60
2023-01-11T07:40:46.795Z,98.30
2023-01-11T07:43:18.771Z,98.40
2023-01-11T07:45:46.872Z,98.50
2023-01-11T07:48:17.521Z,98.20
2023-01-11T07:50:45.279Z,98.50
2023-01-11T07:53:12.192Z,97.30
2023-01-11T07:55:51.333Z,97.10
2023-01-11T07:58:18.612Z,97.10
2023-01-11T08:00:47.412Z,97.00
2023-01-11T08:03:14.240Z,96.80
2023-01-11T08:05:41.055Z,96.60
2023-01-11T08:08:07.814Z,96.20
2023-01-11T08:10:34.462Z,96.40
2023-01-11T08:13:20.249Z,96.00
2023-01-11T08:15:46.979Z,96.30
2023-01-11T08:18:13.667Z,96.10
2023-01-11T08:20:40.395Z,95.70
2023-01-11T08:23:07.106Z,95.50
2023-01-11T08:25:33.993Z,95.30
2023-01-11T08:28:01.137Z,95.70
2023-01-11T08:30:27.919Z,95.90
2023-01-11T08:32:54.694Z,96.20
2023-01-11T08:35:22.048Z,95.50
2023-01-11T08:37:48.719Z,95.70
2023-01-11T08:40:15.361Z,95.30
2023-01-11T08:42:42.145Z,95.40
2023-01-11T08:45:08.996Z,96.10
2023-01-11T08:47:36.713Z,95.50
2023-01-11T08:50:03.506Z,94.90
2023-01-11T08:52:30.230Z,95.30
2023-01-11T08:54:56.909Z,95.60
2023-01-11T08:57:23.691Z,95.80
2023-01-11T08:59:50.479Z,95.60
2023-01-11T09:02:17.207Z,95.80
2023-01-11T09:04:43.858Z,95.90
2023-01-11T09:07:10.662Z,96.20
2023-01-11T09:09:37.407Z,96.60
2023-01-11T09:12:05.799Z,96.50
2023-01-11T09:14:32.557Z,97.00
2023-01-11T09:16:59.331Z,97.20
2023-01-11T09:19:26.151Z,97.70
2023-01-11T09:21:53.273Z,98.00
2023-01-11T09:24:20.039Z,97.70
2023-01-11T09:26:46.800Z,97.60
2023-01-11T09:29:13.989Z,97.30
2023-01-11T09:31:41.274Z,97.50
2023-01-11T09:34:11.008Z,97.30
2023-01-11T09:36:39.995Z,97.60
2023-01-11T09:39:08.732Z,97.30
2023-01-11T09:41:35.424Z,97.30
2023-01-11T09:44:02.369Z,97.30
2023-01-11T09:46:29.573Z,96.50
2023-01-11T09:48:58.196Z,97.00
2023-01-11T09:51:24.955Z,96.50
2023-01-11T09:53:54.013Z,95.50
2023-01-11T09:56:24.677Z,95.80
2023-01-11T09:58:51.660Z,95.30
2023-01-11T10:01:18.460Z,94.70
2023-01-11T10:03:45.346Z,94.80
2023-01-11T10:06:13.238Z,95.10
2023-01-11T10:18:23.433Z,94.30
2023-01-11T10:18:40.395Z,93.90
2023-01-11T10:19:54.621Z,94.50
2023-01-11T10:22:22.455Z,93.50
2023-01-11T10:24:49.279Z,93.60
2023-01-11T10:27:16.156Z,93.60
2023-01-11T10:30:03.103Z,93.20
2023-01-11T10:32:56.156Z,93.30
2023-01-11T10:35:46.910Z,92.20
2023-01-11T10:38:30.894Z,92.40
2023-01-11T10:41:06.849Z,92.30
2023-01-11T10:43:33.848Z,91.90
2023-01-11T10:46:01.008Z,93.00
2023-01-11T10:48:28.184Z,92.10
2023-01-11T10:50:54.937Z,91.60
2023-01-11T10:53:21.634Z,92.90
2023-01-11T10:55:48.462Z,92.60
2023-01-11T10:58:15.122Z,92.40
2023-01-11T11:00:41.891Z,91.60
2023-01-11T11:03:08.696Z,91.50
2023-01-11T11:05:35.395Z,91.80
2023-01-11T11:08:02.217Z,91.90
2023-01-11T11:10:28.997Z,90.90
2023-01-11T11:12:55.684Z,90.20
2023-01-11T11:15:23.744Z,91.40
2023-01-11T11:17:50.494Z,90.80
2023-01-11T11:20:17.176Z,91.70
2023-01-11T11:22:45.211Z,89.40
2023-01-11T11:25:11.925Z,88.10
2023-01-11T11:27:38.576Z,88.20
2023-01-11T11:30:05.235Z,87.70
2023-01-11T11:32:31.925Z,89.50
2023-01-11T11:34:58.553Z,87.60
2023-01-11T11:37:25.240Z,88.30
2023-01-11T11:39:51.968Z,86.90
2023-01-11T11:42:18.718Z,89.50
2023-01-11T11:44:45.450Z,90.00
2023-01-11T11:47:12.098Z,88.70
2023-01-11T11:49:40.004Z,87.70
2023-01-11T11:52:06.944Z,87.10
2023-01-11T11:54:33.723Z,88.40
2023-01-11T11:57:00.524Z,86.20
2023-01-11T11:59:28.107Z,85.60
2023-01-11T12:01:54.889Z,85.30
2023-01-11T12:04:21.530Z,85.20
2023-01-11T12:06:49.366Z,85.40
2023-01-11T12:09:16.340Z,89.90
2023-01-11T12:11:42.987Z,86.30
2023-01-11T12:14:09.804Z,89.90
2023-01-11T12:16:36.626Z,85.00
2023-01-11T12:19:03.377Z,88.20
2023-01-11T12:21:33.163Z,86.10
2023-01-11T12:23:59.831Z,83.60
2023-01-11T12:26:26.553Z,85.10
2023-01-11T12:28:53.229Z,86.80
2023-01-11T12:31:19.929Z,84.30
2023-01-11T12:33:46.599Z,82.90
2023-01-11T12:36:13.339Z,85.70
2023-01-11T12:38:40.126Z,86.20
2023-01-11T12:41:08.568Z,83.20
2023-01-11T12:43:37.267Z,83.00
2023-01-11T12:46:04.634Z,83.50
2023-01-11T12:48:31.449Z,82.60
2023-01-11T12:50:58.248Z,82.50
2023-01-11T12:53:24.916Z,84.00
2023-01-11T12:55:51.664Z,84.30
2023-01-11T12:58:18.328Z,85.30
2023-01-11T13:00:45.156Z,81.80
2023-01-11T13:03:11.849Z,80.90
2023-01-11T13:05:38.865Z,82.70
2023-01-11T13:08:05.609Z,81.60
2023-01-11T13:10:32.315Z,82.70
2023-01-11T13:12:59.057Z,83.10
2023-01-11T13:15:25.819Z,83.90
2023-01-11T13:17:52.530Z,84.40
2023-01-11T13:20:19.173Z,86.10
2023-01-11T13:22:45.893Z,86.70
2023-01-11T13:25:12.569Z,86.50
2023-01-11T13:27:39.198Z,84.00
2023-01-11T13:30:06.067Z,82.60
2023-01-11T13:32:40.073Z,84.50
2023-01-11T13:35:06.898Z,85.80
2023-01-11T13:37:33.670Z,83.00
2023-01-11T13:40:00.313Z,82.50
2023-01-11T13:42:27.084Z,84.30
2023-01-11T13:44:53.747Z,84.00
2023-01-11T13:47:20.584Z,82.90
2023-01-11T13:49:47.373Z,84.30
2023-01-11T13:52:14.044Z,83.10
2023-01-11T13:54:40.678Z,85.00
2023-01-11T13:57:07.338Z,82.50
2023-01-11T13:59:34.018Z,88.00
2023-01-11T14:02:00.707Z,91.00
2023-01-11T14:04:30.034Z,94.40
2023-01-11T14:06:56.664Z,95.20
2023-01-11T14:09:23.356Z,97.60
2023-01-11T14:11:50.027Z,98.40
2023-01-11T14:14:18.279Z,99.00
2023-01-11T14:16:45.020Z,98.90
2023-01-11T14:19:11.820Z,99.70
2023-01-11T14:21:38.501Z,98.30
2023-01-11T14:24:05.251Z,99.10
2023-01-11T14:26:31.909Z,98.10
2023-01-11T14:28:58.623Z,98.30
2023-01-11T14:31:25.512Z,98.00
2023-01-11T14:33:53.900Z,97.00
2023-01-11T14:36:20.609Z,96.20
2023-01-11T14:38:47.471Z,96.80
2023-01-11T14:41:14.167Z,96.90
2023-01-11T14:43:40.814Z,96.30
2023-01-11T14:46:07.534Z,96.40
2023-01-11T14:48:38.704Z,96.40
2023-01-11T14:51:06.981Z,97.60
2023-01-11T14:53:33.760Z,95.70
2023-01-11T14:56:00.562Z,97.10
2023-01-11T14:58:27.308Z,95.40
2023-01-11T15:00:54.050Z,96.30
2023-01-11T15:03:21.391Z,96.60
2023-01-11T15:05:48.018Z,96.10
2023-01-11T15:08:14.763Z,97.30
2023-01-11T15:10:41.945Z,97.30
2023-01-11T15:13:08.699Z,96.90
2023-01-11T15:15:58.701Z,96.70
2023-01-11T15:18:25.421Z,97.40
2023-01-11T15:20:52.523Z,96.90
2023-01-11T15:23:19.214Z,98.00
2023-01-11T15:25:45.844Z,97.40
2023-01-11T15:28:12.443Z,98.20
2023-01-11T15:30:39.083Z,98.20
2023-01-11T15:33:05.835Z,98.90
2023-01-11T15:35:32.667Z,99.40
2023-01-11T15:37:59.315Z,99.90
2023-01-11T15:40:25.985Z,99.90
2023-01-11T15:42:52.772Z,99.90
2023-01-11T15:45:19.445Z,99.90
2023-01-11T15:47:48.317Z,99.90
2023-01-11T15:50:16.530Z,99.90
2023-01-11T15:52:50.345Z,99.90
2023-01-11T15:55:17.066Z,99.90
2023-01-11T15:57:43.855Z,99.90
2023-01-11T16:00:10.612Z,99.90
2023-01-11T16:02:37.244Z,99.90
2023-01-11T16:05:03.917Z,99.90
2023-01-11T16:07:30.631Z,99.90
2023-01-11T16:09:57.245Z,99.90
2023-01-11T16:12:23.871Z,99.90
2023-01-11T16:14:50.612Z,99.90
2023-01-11T16:17:17.269Z,99.90
2023-01-11T16:19:43.974Z,99.90
2023-01-11T16:22:10.679Z,99.90
2023-01-11T16:24:37.669Z,99.90
2023-01-11T16:27:04.682Z,99.90
2023-01-11T16:29:32.021Z,99.90
2023-01-11T16:31:59.039Z,99.90
2023-01-11T16:34:26.109Z,99.90
2023-01-11T16:36:53.252Z,99.90
2023-01-11T16:39:20.279Z,99.90
2023-01-11T16:41:47.347Z,99.90
2023-01-11T16:44:14.325Z,99.90
2023-01-11T16:46:41.405Z,99.90
2023-01-11T16:49:08.521Z,99.90
2023-01-11T16:51:35.601Z,99.90
2023-01-11T16:54:04.075Z,99.90
2023-01-11T16:56:31.085Z,99.90
2023-01-11T16:58:58.327Z,99.90
2023-01-11T17:01:25.498Z,99.90
2023-01-11T17:03:52.716Z,99.90
2023-01-11T17:06:19.869Z,99.90
2023-01-11T17:08:50.848Z,99.90
2023-01-11T17:11:18.110Z,99.90
2023-01-11T17:13:54.468Z,99.90
2023-01-11T17:16:22.190Z,99.90
2023-01-11T17:18:49.348Z,99.90
2023-01-11T17:21:16.069Z,99.90
2023-01-11T17:23:43.096Z,99.90
2023-01-11T17:26:14.671Z,99.90
2023-01-11T17:28:44.636Z,99.90
2023-01-11T17:31:11.618Z,99.90
2023-01-11T17:33:38.749Z,99.90
2023-01-11T17:36:06.012Z,99.90
2023-01-11T17:38:32.706Z,99.90
2023-01-11T17:41:01.355Z,99.90
2023-01-11T17:43:46.890Z,99.90
2023-01-11T17:46:13.529Z,99.90
2023-01-11T17:48:40.204Z,99.90
2023-01-11T17:51:07.031Z,99.90
2023-01-11T17:53:34.023Z,99.90
2023-01-11T17:56:00.683Z,99.90
2023-01-11T17:58:27.444Z,99.90
2023-01-11T18:00:54.093Z,99.90
2023-01-11T18:03:20.762Z,99.90
2023-01-11T18:05:47.521Z,99.90
2023-01-11T18:08:14.140Z,99.90
2023-01-11T18:10:40.901Z,98.90
2023-01-11T18:13:07.622Z,99.30
2023-01-11T18:15:34.241Z,99.20
2023-01-11T18:18:01.016Z,99.30
2023-01-11T18:20:27.735Z,99.20
2023-01-11T18:22:54.380Z,99.30
2023-01-11T18:25:21.002Z,99.30
2023-01-11T18:27:47.733Z,99.10
2023-01-11T18:30:14.338Z,99.50
2023-01-11T18:32:41.049Z,98.90
2023-01-11T18:35:07.700Z,99.60
2023-01-11T18:37:34.331Z,98.90
2023-01-11T18:40:01.555Z,99.10
2023-01-11T18:42:28.245Z,99.50
2023-01-11T18:44:54.939Z,99.40
2023-01-11T18:47:21.914Z,99.60
2023-01-11T18:49:48.758Z,99.60
2023-01-11T18:52:15.717Z,99.30
2023-01-11T18:54:42.523Z,98.80
2023-01-11T18:57:09.239Z,98.60
2023-01-11T18:59:35.883Z,99.20
2023-01-11T19:02:16.195Z,98.80
2023-01-11T19:04:43.924Z,98.30
2023-01-11T19:07:10.639Z,97.90
2023-01-11T19:09:37.310Z,98.40
2023-01-11T19:12:03.962Z,98.40
2023-01-11T19:14:30.597Z,97.40
2023-01-11T19:16:57.347Z,97.70
2023-01-11T19:19:24.036Z,97.70
2023-01-11T19:21:50.710Z,97.80
2023-01-11T19:24:17.385Z,97.40
2023-01-11T19:26:44.121Z,98.00
2023-01-11T19:29:16.507Z,97.60
2023-01-11T19:31:43.133Z,97.30
2023-01-11T19:34:09.973Z,97.30
2023-01-11T19:36:36.661Z,97.60
2023-01-11T19:39:03.368Z,97.60
2023-01-11T19:41:49.994Z,97.60
2023-01-11T19:44:16.697Z,97.30
2023-01-11T19:46:43.536Z,97.40
2023-01-11T19:49:10.594Z,98.00
2023-01-11T19:51:37.448Z,97.70
2023-01-11T19:54:04.135Z,97.00
2023-01-11T19:56:30.923Z,97.70
2023-01-11T19:58:57.654Z,97.30
2023-01-11T20:01:24.326Z,97.20
2023-01-11T20:03:51.234Z,97.40
2023-01-11T20:06:17.958Z,96.90
2023-01-11T20:08:45.241Z,98.30
2023-01-11T20:11:11.907Z,96.90
2023-01-11T20:13:38.644Z,97.40
2023-01-11T20:16:05.615Z,97.00
2023-01-11T20:18:32.491Z,97.50
2023-01-11T20:20:59.186Z,96.90
2023-01-11T20:23:26.466Z,96.90
2023-01-11T20:25:53.177Z,97.30
2023-01-11T20:28:20.609Z,97.50
2023-01-11T20:30:47.293Z,97.50
2023-01-11T20:33:13.995Z,97.00
2023-01-11T20:35:40.626Z,97.30
2023-01-11T20:38:07.409Z,97.50
2023-01-11T20:40:34.154Z,97.00
2023-01-11T20:43:00.897Z,97.00
2023-01-11T20:45:29.292Z,96.80
2023-01-11T20:47:56.152Z,97.30
2023-01-11T20:50:22.827Z,97.50
2023-01-11T20:52:49.670Z,96.90
2023-01-11T20:55:16.406Z,97.20
2023-01-11T20:57:43.082Z,97.40
2023-01-11T21:02:36.415Z,97.40
2023-01-11T21:05:06.335Z,98.10
2023-01-11T21:07:32.968Z,98.10
2023-01-11T21:09:59.633Z,98.10
2023-01-11T21:12:26.253Z,98.70
2023-01-11T21:14:52.939Z,98.30
2023-01-11T21:17:19.904Z,98.10
2023-01-11T21:19:46.476Z,98.40
2023-01-11T21:22:13.193Z,97.80
2023-01-11T21:24:41.140Z,98.60
2023-01-11T21:27:07.849Z,98.50
2023-01-11T21:29:34.526Z,98.40
2023-01-11T21:32:01.202Z,98.50
2023-01-11T21:34:27.953Z,97.80
2023-01-11T21:36:54.659Z,98.20
2023-01-11T21:39:21.290Z,97.90
2023-01-11T21:41:58.954Z,97.70
2023-01-11T21:44:27.187Z,97.40
2023-01-11T21:46:54.066Z,98.30
2023-01-11T21:49:22.575Z,98.00
2023-01-11T21:51:49.295Z,98.00
2023-01-11T21:54:17.070Z,97.60
2023-01-11T21:56:43.733Z,97.60
2023-01-11T21:59:10.368Z,97.80
2023-01-11T22:01:36.988Z,97.60
2023-01-11T22:04:03.809Z,98.40
2023-01-11T22:06:30.635Z,97.80
2023-01-11T22:08:57.608Z,97.30
2023-01-11T22:11:24.259Z,98.00
2023-01-11T22:13:50.929Z,98.00
2023-01-11T22:16:17.609Z,97.40
2023-01-11T22:18:44.360Z,97.40
2023-01-11T22:21:11.051Z,97.70
2023-01-11T22:23:37.823Z,97.00
2023-01-11T22:26:04.560Z,96.60
2023-01-11T22:28:31.322Z,96.40
2023-01-11T22:31:00.562Z,96.50
2023-01-11T22:33:27.277Z,96.00
2023-01-11T22:35:53.942Z,96.30
2023-01-11T22:38:20.614Z,96.40
2023-01-11T22:40:47.201Z,96.60
2023-01-11T22:43:14.236Z,96.70
2023-01-11T22:45:40.909Z,96.50
2023-01-11T22:48:07.509Z,96.20
2023-01-11T22:50:35.113Z,96.40
2023-01-11T22:53:05.639Z,95.90
2023-01-11T22:55:32.499Z,95.60
2023-01-11T22:57:59.725Z,95.40
2023-01-11T23:00:26.431Z,96.20
2023-01-11T23:02:53.127Z,95.10
2023-01-11T23:05:19.771Z,95.10
2023-01-11T23:07:46.466Z,96.10
2023-01-11T23:10:13.700Z,95.70
2023-01-11T23:12:58.977Z,95.90
2023-01-11T23:15:25.631Z,96.20
2023-01-11T23:17:52.295Z,96.40
2023-01-11T23:20:18.910Z,96.70
2023-01-11T23:22:45.565Z,96.70
2023-01-11T23:25:12.161Z,97.30
2023-01-11T23:27:38.793Z,97.00
2023-01-11T23:30:05.411Z,96.30
2023-01-11T23:32:31.995Z,96.60
2023-01-11T23:34:58.702Z,96.60
2023-01-11T23:37:25.298Z,96.50
2023-01-11T23:39:51.961Z,97.30
2023-01-11T23:42:27.748Z,97.70
2023-01-11T23:44:54.384Z,98.20
2023-01-11T23:47:21.133Z,98.40
2023-01-11T23:49:48.505Z,99.50
2023-01-11T23:52:15.164Z,99.50
2023-01-11T23:54:42.879Z,99.30
2023-01-11T23:57:09.605Z,99.20
2023-01-11T23:59:36.250Z,99.70
